sensor_id;sensor_type;location;lat;lon;timestamp;pressure;altitude;pressure_sealevel;temperature;humidity
81352;BME280;70809;52.184;13.422;2023-12-28T00:00:45;100808.47;;;4.28;86.58
81352;BME280;70809;52.184;13.422;2023-12-28T00:01:46;100803.88;;;4.22;86.73
81352;BME280;70809;52.184;13.422;2023-12-28T00:02:48;100801.16;;;4.19;86.89
81352;BME280;70809;52.184;13.422;2023-12-28T00:03:50;100805.59;;;4.21;86.90
81352;BME280;70809;52.184;13.422;2023-12-28T00:04:52;100805.59;;;4.21;87.50
81352;BME280;70809;52.184;13.422;2023-12-28T00:05:53;100808.16;;;4.20;87.26
81352;BME280;70809;52.184;13.422;2023-12-28T00:06:55;100794.22;;;4.19;86.87
81352;BME280;70809;52.184;13.422;2023-12-28T00:07:57;100800.38;;;4.21;87.18
81352;BME280;70809;52.184;13.422;2023-12-28T00:08:59;100794.13;;;4.18;86.79
81352;BME280;70809;52.184;13.422;2023-12-28T00:10:11;100796.03;;;4.22;87.01
81352;BME280;70809;52.184;13.422;2023-12-28T00:11:13;100785.72;;;4.25;86.88
81352;BME280;70809;52.184;13.422;2023-12-28T00:12:15;100785.16;;;4.11;86.44
81352;BME280;70809;52.184;13.422;2023-12-28T00:13:18;100785.97;;;4.10;86.46
81352;BME280;70809;52.184;13.422;2023-12-28T00:14:20;100777.13;;;4.07;86.27
81352;BME280;70809;52.184;13.422;2023-12-28T00:15:22;100767.50;;;4.06;87.04
81352;BME280;70809;52.184;13.422;2023-12-28T00:16:23;100764.97;;;4.07;87.17
81352;BME280;70809;52.184;13.422;2023-12-28T00:17:25;100771.09;;;4.08;87.24
81352;BME280;70809;52.184;13.422;2023-12-28T00:18:27;100769.84;;;4.20;87.01
81352;BME280;70809;52.184;13.422;2023-12-28T00:19:29;100770.53;;;4.16;86.48
81352;BME280;70809;52.184;13.422;2023-12-28T00:20:30;100776.38;;;4.09;86.67
81352;BME280;70809;52.184;13.422;2023-12-28T00:21:32;100775.97;;;4.21;86.28
81352;BME280;70809;52.184;13.422;2023-12-28T00:22:35;100764.31;;;4.35;85.58
81352;BME280;70809;52.184;13.422;2023-12-28T00:23:37;100758.97;;;4.55;85.13
81352;BME280;70809;52.184;13.422;2023-12-28T00:24:38;100755.44;;;4.76;84.22
81352;BME280;70809;52.184;13.422;2023-12-28T00:25:40;100743.25;;;4.77;83.38
81352;BME280;70809;52.184;13.422;2023-12-28T00:26:42;100740.28;;;4.68;84.22
81352;BME280;70809;52.184;13.422;2023-12-28T00:27:44;100746.25;;;4.88;83.05
81352;BME280;70809;52.184;13.422;2023-12-28T00:28:47;100748.47;;;5.01;82.36
81352;BME280;70809;52.184;13.422;2023-12-28T00:29:48;100733.91;;;5.09;81.76
81352;BME280;70809;52.184;13.422;2023-12-28T00:30:53;100730.78;;;5.19;81.33
81352;BME280;70809;52.184;13.422;2023-12-28T00:31:55;100730.03;;;5.22;80.87
81352;BME280;70809;52.184;13.422;2023-12-28T00:32:57;100731.25;;;5.33;80.47
81352;BME280;70809;52.184;13.422;2023-12-28T00:33:59;100729.50;;;5.32;80.21
81352;BME280;70809;52.184;13.422;2023-12-28T00:35:01;100736.75;;;5.39;79.41
81352;BME280;70809;52.184;13.422;2023-12-28T00:36:03;100737.28;;;5.56;77.96
81352;BME280;70809;52.184;13.422;2023-12-28T00:37:04;100741.50;;;5.78;77.49
81352;BME280;70809;52.184;13.422;2023-12-28T00:38:06;100744.00;;;5.99;76.45
81352;BME280;70809;52.184;13.422;2023-12-28T00:39:08;100748.88;;;5.90;75.95
81352;BME280;70809;52.184;13.422;2023-12-28T00:40:10;100750.84;;;5.95;75.38
81352;BME280;70809;52.184;13.422;2023-12-28T00:41:12;100741.72;;;6.09;75.40
81352;BME280;70809;52.184;13.422;2023-12-28T00:42:14;100750.81;;;6.21;75.08
81352;BME280;70809;52.184;13.422;2023-12-28T00:43:15;100736.84;;;6.22;75.24
81352;BME280;70809;52.184;13.422;2023-12-28T00:44:19;100741.22;;;6.21;74.81
81352;BME280;70809;52.184;13.422;2023-12-28T00:45:20;100738.41;;;6.15;75.08
81352;BME280;70809;52.184;13.422;2023-12-28T00:46:22;100727.53;;;6.03;74.68
81352;BME280;70809;52.184;13.422;2023-12-28T00:47:24;100719.97;;;6.13;74.69
81352;BME280;70809;52.184;13.422;2023-12-28T00:48:25;100725.72;;;6.02;75.28
81352;BME280;70809;52.184;13.422;2023-12-28T00:49:27;100717.63;;;5.94;75.42
81352;BME280;70809;52.184;13.422;2023-12-28T00:50:29;100719.66;;;6.03;75.08
81352;BME280;70809;52.184;13.422;2023-12-28T00:51:31;100709.25;;;6.06;74.03
81352;BME280;70809;52.184;13.422;2023-12-28T00:52:33;100711.09;;;6.08;74.52
81352;BME280;70809;52.184;13.422;2023-12-28T00:53:35;100700.91;;;6.19;74.05
81352;BME280;70809;52.184;13.422;2023-12-28T00:54:37;100709.34;;;6.37;72.62
81352;BME280;70809;52.184;13.422;2023-12-28T00:55:39;100705.59;;;6.29;72.88
81352;BME280;70809;52.184;13.422;2023-12-28T00:56:41;100716.78;;;6.24;73.36
81352;BME280;70809;52.184;13.422;2023-12-28T00:57:42;100700.66;;;6.40;72.45
81352;BME280;70809;52.184;13.422;2023-12-28T00:58:44;100697.47;;;6.50;71.63
81352;BME280;70809;52.184;13.422;2023-12-28T00:59:47;100696.63;;;6.51;70.64
81352;BME280;70809;52.184;13.422;2023-12-28T01:00:49;100711.53;;;6.52;71.03
81352;BME280;70809;52.184;13.422;2023-12-28T01:01:51;100710.84;;;6.59;70.48
81352;BME280;70809;52.184;13.422;2023-12-28T01:02:52;100708.50;;;6.69;70.92
81352;BME280;70809;52.184;13.422;2023-12-28T01:03:54;100704.16;;;6.69;70.00
81352;BME280;70809;52.184;13.422;2023-12-28T01:04:56;100708.78;;;6.78;69.52
81352;BME280;70809;52.184;13.422;2023-12-28T01:05:58;100704.31;;;6.75;69.98
81352;BME280;70809;52.184;13.422;2023-12-28T01:06:59;100701.88;;;6.81;69.85
81352;BME280;70809;52.184;13.422;2023-12-28T01:08:04;100693.78;;;6.74;69.56
81352;BME280;70809;52.184;13.422;2023-12-28T01:09:06;100702.38;;;6.68;70.57
81352;BME280;70809;52.184;13.422;2023-12-28T01:10:08;100704.31;;;6.75;69.58
81352;BME280;70809;52.184;13.422;2023-12-28T01:11:10;100699.88;;;6.73;70.00
81352;BME280;70809;52.184;13.422;2023-12-28T01:12:14;100699.00;;;6.72;69.48
81352;BME280;70809;52.184;13.422;2023-12-28T01:13:16;100700.94;;;6.79;69.06
81352;BME280;70809;52.184;13.422;2023-12-28T01:14:18;100701.94;;;6.83;69.21
81352;BME280;70809;52.184;13.422;2023-12-28T01:15:21;100707.03;;;6.78;68.66
81352;BME280;70809;52.184;13.422;2023-12-28T01:16:23;100712.66;;;6.92;68.17
81352;BME280;70809;52.184;13.422;2023-12-28T01:17:25;100713.38;;;6.86;68.49
81352;BME280;70809;52.184;13.422;2023-12-28T01:18:26;100721.06;;;6.79;68.97
81352;BME280;70809;52.184;13.422;2023-12-28T01:19:28;100720.31;;;6.83;68.55
81352;BME280;70809;52.184;13.422;2023-12-28T01:20:30;100725.59;;;6.84;67.90
81352;BME280;70809;52.184;13.422;2023-12-28T01:21:32;100719.50;;;6.85;68.33
81352;BME280;70809;52.184;13.422;2023-12-28T01:22:34;100729.09;;;6.85;68.32
81352;BME280;70809;52.184;13.422;2023-12-28T01:23:35;100726.31;;;6.79;68.59
81352;BME280;70809;52.184;13.422;2023-12-28T01:24:37;100728.97;;;6.80;68.55
81352;BME280;70809;52.184;13.422;2023-12-28T01:25:39;100726.47;;;6.85;68.54
81352;BME280;70809;52.184;13.422;2023-12-28T01:26:41;100725.50;;;6.81;68.19
81352;BME280;70809;52.184;13.422;2023-12-28T01:27:42;100739.75;;;6.89;67.75
81352;BME280;70809;52.184;13.422;2023-12-28T01:28:44;100731.31;;;7.01;67.54
81352;BME280;70809;52.184;13.422;2023-12-28T01:29:49;100727.97;;;7.07;67.28
81352;BME280;70809;52.184;13.422;2023-12-28T01:30:52;100731.28;;;7.00;67.81
81352;BME280;70809;52.184;13.422;2023-12-28T01:31:53;100727.22;;;6.81;68.72
81352;BME280;70809;52.184;13.422;2023-12-28T01:32:55;100730.66;;;6.78;68.29
81352;BME280;70809;52.184;13.422;2023-12-28T01:33:57;100726.34;;;6.80;68.14
81352;BME280;70809;52.184;13.422;2023-12-28T01:34:59;100719.34;;;6.81;68.02
81352;BME280;70809;52.184;13.422;2023-12-28T01:36:01;100725.59;;;6.84;68.18
81352;BME280;70809;52.184;13.422;2023-12-28T01:37:03;100724.53;;;6.78;68.20
81352;BME280;70809;52.184;13.422;2023-12-28T01:38:06;100721.41;;;6.91;68.09
81352;BME280;70809;52.184;13.422;2023-12-28T01:39:07;100718.88;;;6.94;68.02
81352;BME280;70809;52.184;13.422;2023-12-28T01:40:09;100720.88;;;6.73;68.92
81352;BME280;70809;52.184;13.422;2023-12-28T01:41:11;100715.34;;;6.63;69.46
81352;BME280;70809;52.184;13.422;2023-12-28T01:42:13;100717.22;;;6.68;68.53
81352;BME280;70809;52.184;13.422;2023-12-28T01:43:15;100714.31;;;6.58;69.72
81352;BME280;70809;52.184;13.422;2023-12-28T01:44:17;100713.31;;;6.53;69.12
81352;BME280;70809;52.184;13.422;2023-12-28T01:45:19;100717.06;;;6.61;68.96
81352;BME280;70809;52.184;13.422;2023-12-28T01:46:22;100724.25;;;6.69;69.12
81352;BME280;70809;52.184;13.422;2023-12-28T01:47:25;100722.66;;;6.74;68.28
81352;BME280;70809;52.184;13.422;2023-12-28T01:48:27;100728.03;;;6.78;68.15
81352;BME280;70809;52.184;13.422;2023-12-28T01:49:31;100723.03;;;6.87;67.36
81352;BME280;70809;52.184;13.422;2023-12-28T01:50:33;100718.88;;;6.94;66.99
81352;BME280;70809;52.184;13.422;2023-12-28T01:51:35;100723.28;;;6.95;67.13
81352;BME280;70809;52.184;13.422;2023-12-28T01:52:37;100716.16;;;6.91;67.68
81352;BME280;70809;52.184;13.422;2023-12-28T01:53:40;100721.41;;;6.91;66.77
81352;BME280;70809;52.184;13.422;2023-12-28T01:54:42;100722.22;;;6.88;66.95
81352;BME280;70809;52.184;13.422;2023-12-28T01:55:44;100710.31;;;7.01;65.84
81352;BME280;70809;52.184;13.422;2023-12-28T01:56:46;100714.88;;;7.08;66.28
81352;BME280;70809;52.184;13.422;2023-12-28T01:57:48;100714.78;;;7.05;66.28
81352;BME280;70809;52.184;13.422;2023-12-28T01:58:50;100710.38;;;7.04;66.40
81352;BME280;70809;52.184;13.422;2023-12-28T01:59:52;100709.44;;;7.01;65.35
81352;BME280;70809;52.184;13.422;2023-12-28T02:00:55;100710.47;;;7.07;65.03
81352;BME280;70809;52.184;13.422;2023-12-28T02:01:59;100709.00;;;7.17;65.32
81352;BME280;70809;52.184;13.422;2023-12-28T02:03:01;100710.03;;;7.24;64.31
81352;BME280;70809;52.184;13.422;2023-12-28T02:04:03;100709.34;;;7.31;64.24
81352;BME280;70809;52.184;13.422;2023-12-28T02:05:05;100703.44;;;7.39;64.27
81352;BME280;70809;52.184;13.422;2023-12-28T02:06:07;100696.22;;;7.31;64.16
81352;BME280;70809;52.184;13.422;2023-12-28T02:07:10;100699.00;;;7.37;63.83
81352;BME280;70809;52.184;13.422;2023-12-28T02:08:13;100696.41;;;7.38;64.03
81352;BME280;70809;52.184;13.422;2023-12-28T02:09:15;100692.50;;;7.23;64.24
81352;BME280;70809;52.184;13.422;2023-12-28T02:10:19;100701.47;;;7.31;63.75
81352;BME280;70809;52.184;13.422;2023-12-28T02:11:20;100696.34;;;7.35;63.81
81352;BME280;70809;52.184;13.422;2023-12-28T02:12:22;100699.31;;;7.49;62.78
81352;BME280;70809;52.184;13.422;2023-12-28T02:13:26;100691.50;;;7.52;63.00
81352;BME280;70809;52.184;13.422;2023-12-28T02:14:28;100680.91;;;7.49;62.64
81352;BME280;70809;52.184;13.422;2023-12-28T02:15:33;100675.44;;;7.40;62.94
81352;BME280;70809;52.184;13.422;2023-12-28T02:16:39;100682.38;;;7.38;63.45
81352;BME280;70809;52.184;13.422;2023-12-28T02:17:49;100684.53;;;7.54;63.31
81352;BME280;70809;52.184;13.422;2023-12-28T02:18:56;100687.94;;;7.50;62.48
81352;BME280;70809;52.184;13.422;2023-12-28T02:19:58;100688.19;;;7.59;61.93
81352;BME280;70809;52.184;13.422;2023-12-28T02:21:02;100700.63;;;7.66;61.86
81352;BME280;70809;52.184;13.422;2023-12-28T02:22:04;100691.03;;;7.68;61.88
81352;BME280;70809;52.184;13.422;2023-12-28T02:23:07;100691.84;;;7.66;61.79
81352;BME280;70809;52.184;13.422;2023-12-28T02:24:09;100687.59;;;7.71;61.15
81352;BME280;70809;52.184;13.422;2023-12-28T02:25:13;100701.47;;;7.65;61.78
81352;BME280;70809;52.184;13.422;2023-12-28T02:26:15;100689.97;;;7.62;62.06
81352;BME280;70809;52.184;13.422;2023-12-28T02:27:17;100697.97;;;7.65;62.83
81352;BME280;70809;52.184;13.422;2023-12-28T02:28:18;100694.06;;;7.51;62.49
81352;BME280;70809;52.184;13.422;2023-12-28T02:29:23;100689.94;;;7.60;62.06
81352;BME280;70809;52.184;13.422;2023-12-28T02:30:25;100673.44;;;7.66;61.73
81352;BME280;70809;52.184;13.422;2023-12-28T02:31:32;100688.31;;;7.65;62.17
81352;BME280;70809;52.184;13.422;2023-12-28T02:32:44;100711.75;;;7.56;62.31
81352;BME280;70809;52.184;13.422;2023-12-28T02:33:57;100723.22;;;7.58;62.18
81352;BME280;70809;52.184;13.422;2023-12-28T02:35:06;100726.84;;;7.63;62.15
81352;BME280;70809;52.184;13.422;2023-12-28T02:36:12;100724.88;;;7.56;61.97
81352;BME280;70809;52.184;13.422;2023-12-28T02:37:16;100726.06;;;7.67;61.49
81352;BME280;70809;52.184;13.422;2023-12-28T02:38:19;100725.28;;;7.71;61.08
81352;BME280;70809;52.184;13.422;2023-12-28T02:39:24;100727.03;;;7.71;61.68
81352;BME280;70809;52.184;13.422;2023-12-28T02:40:28;100724.97;;;7.59;61.87
81352;BME280;70809;52.184;13.422;2023-12-28T02:41:33;100725.13;;;7.65;61.14
81352;BME280;70809;52.184;13.422;2023-12-28T02:42:35;100721.78;;;7.72;61.08
81352;BME280;70809;52.184;13.422;2023-12-28T02:43:37;100724.56;;;7.79;61.11
81352;BME280;70809;52.184;13.422;2023-12-28T02:44:38;100725.38;;;7.75;60.87
81352;BME280;70809;52.184;13.422;2023-12-28T02:45:40;100710.41;;;7.72;60.97
81352;BME280;70809;52.184;13.422;2023-12-28T02:46:42;100707.72;;;7.69;61.17
81352;BME280;70809;52.184;13.422;2023-12-28T02:47:44;100730.53;;;7.71;61.17
81352;BME280;70809;52.184;13.422;2023-12-28T02:48:46;100715.03;;;7.82;60.32
81352;BME280;70809;52.184;13.422;2023-12-28T02:49:48;100728.19;;;7.82;60.50
81352;BME280;70809;52.184;13.422;2023-12-28T02:50:50;100719.38;;;7.80;60.75
81352;BME280;70809;52.184;13.422;2023-12-28T02:51:51;100708.34;;;7.96;60.63
81352;BME280;70809;52.184;13.422;2023-12-28T02:52:53;100706.53;;;7.94;60.71
81352;BME280;70809;52.184;13.422;2023-12-28T02:53:55;100720.25;;;7.81;59.92
81352;BME280;70809;52.184;13.422;2023-12-28T02:54:56;100711.66;;;7.88;61.30
81352;BME280;70809;52.184;13.422;2023-12-28T02:56:00;100721.78;;;7.72;60.79
81352;BME280;70809;52.184;13.422;2023-12-28T02:57:01;100727.06;;;7.72;60.83
81352;BME280;70809;52.184;13.422;2023-12-28T02:58:03;100715.28;;;7.91;61.10
81352;BME280;70809;52.184;13.422;2023-12-28T02:59:05;100730.69;;;7.78;60.51
81352;BME280;70809;52.184;13.422;2023-12-28T03:00:08;100725.47;;;7.79;60.87
81352;BME280;70809;52.184;13.422;2023-12-28T03:01:10;100712.47;;;7.85;60.38
81352;BME280;70809;52.184;13.422;2023-12-28T03:02:11;100709.91;;;7.87;60.19
81352;BME280;70809;52.184;13.422;2023-12-28T03:03:13;100719.75;;;7.97;60.36
81352;BME280;70809;52.184;13.422;2023-12-28T03:04:15;100738.94;;;7.91;59.88
81352;BME280;70809;52.184;13.422;2023-12-28T03:05:17;100720.41;;;7.87;60.06
81352;BME280;70809;52.184;13.422;2023-12-28T03:06:19;100734.88;;;7.69;60.96
81352;BME280;70809;52.184;13.422;2023-12-28T03:07:21;100729.63;;;7.69;60.97
81352;BME280;70809;52.184;13.422;2023-12-28T03:08:22;100739.34;;;7.73;60.67
81352;BME280;70809;52.184;13.422;2023-12-28T03:09:24;100734.09;;;7.73;60.54
81352;BME280;70809;52.184;13.422;2023-12-28T03:10:26;100734.19;;;7.77;59.97
81352;BME280;70809;52.184;13.422;2023-12-28T03:11:29;100731.69;;;7.83;60.42
81352;BME280;70809;52.184;13.422;2023-12-28T03:12:31;100734.09;;;7.73;60.48
81352;BME280;70809;52.184;13.422;2023-12-28T03:13:32;100738.53;;;7.75;60.39
81352;BME280;70809;52.184;13.422;2023-12-28T03:14:34;100736.78;;;7.75;60.49
81352;BME280;70809;52.184;13.422;2023-12-28T03:15:36;100735.41;;;7.91;59.76
81352;BME280;70809;52.184;13.422;2023-12-28T03:16:37;100720.47;;;7.90;59.72
81352;BME280;70809;52.184;13.422;2023-12-28T03:17:39;100720.41;;;7.87;59.25
81352;BME280;70809;52.184;13.422;2023-12-28T03:18:44;100716.97;;;7.91;59.95
81352;BME280;70809;52.184;13.422;2023-12-28T03:19:46;100721.50;;;7.96;59.17
81352;BME280;70809;52.184;13.422;2023-12-28T03:20:48;100716.97;;;7.91;59.31
81352;BME280;70809;52.184;13.422;2023-12-28T03:21:49;100703.16;;;7.98;59.44
81352;BME280;70809;52.184;13.422;2023-12-28T03:22:51;100708.19;;;7.89;59.99
81352;BME280;70809;52.184;13.422;2023-12-28T03:23:55;100708.19;;;7.89;59.08
81352;BME280;70809;52.184;13.422;2023-12-28T03:24:57;100708.47;;;8.01;58.79
81352;BME280;70809;52.184;13.422;2023-12-28T03:26:03;100710.31;;;8.05;58.42
81352;BME280;70809;52.184;13.422;2023-12-28T03:27:06;100698.22;;;8.13;58.08
81352;BME280;70809;52.184;13.422;2023-12-28T03:28:10;100705.41;;;8.20;57.98
81352;BME280;70809;52.184;13.422;2023-12-28T03:29:12;100701.84;;;8.18;58.29
81352;BME280;70809;52.184;13.422;2023-12-28T03:30:17;100697.47;;;8.19;58.39
81352;BME280;70809;52.184;13.422;2023-12-28T03:31:19;100713.19;;;8.14;58.67
81352;BME280;70809;52.184;13.422;2023-12-28T03:32:20;100703.44;;;8.10;58.45
81352;BME280;70809;52.184;13.422;2023-12-28T03:33:23;100699.31;;;8.23;59.17
81352;BME280;70809;52.184;13.422;2023-12-28T03:34:25;100696.47;;;8.14;58.32
81352;BME280;70809;52.184;13.422;2023-12-28T03:35:27;100713.00;;;8.08;59.08
81352;BME280;70809;52.184;13.422;2023-12-28T03:36:29;100722.75;;;8.12;58.49
81352;BME280;70809;52.184;13.422;2023-12-28T03:37:30;100714.09;;;8.16;59.26
81352;BME280;70809;52.184;13.422;2023-12-28T03:38:32;100709.72;;;8.17;59.86
81352;BME280;70809;52.184;13.422;2023-12-28T03:39:34;100708.69;;;8.10;60.20
81352;BME280;70809;52.184;13.422;2023-12-28T03:40:36;100711.38;;;8.13;58.31
81352;BME280;70809;52.184;13.422;2023-12-28T03:41:37;100716.50;;;8.07;60.06
81352;BME280;70809;52.184;13.422;2023-12-28T03:42:40;100714.09;;;8.16;58.79
81352;BME280;70809;52.184;13.422;2023-12-28T03:43:42;100710.69;;;8.20;59.27
81352;BME280;70809;52.184;13.422;2023-12-28T03:44:44;100722.88;;;8.17;60.03
81352;BME280;70809;52.184;13.422;2023-12-28T03:45:45;100724.47;;;8.10;60.28
81352;BME280;70809;52.184;13.422;2023-12-28T03:46:47;100735.19;;;8.19;59.00
81352;BME280;70809;52.184;13.422;2023-12-28T03:47:49;100728.03;;;8.14;59.68
81352;BME280;70809;52.184;13.422;2023-12-28T03:48:51;100734.38;;;8.20;60.43
81352;BME280;70809;52.184;13.422;2023-12-28T03:49:54;100718.56;;;8.20;58.94
81352;BME280;70809;52.184;13.422;2023-12-28T03:50:55;100729.09;;;8.20;59.70
81352;BME280;70809;52.184;13.422;2023-12-28T03:51:57;100734.41;;;8.22;59.85
81352;BME280;70809;52.184;13.422;2023-12-28T03:53:01;100716.84;;;8.22;60.00
81352;BME280;70809;52.184;13.422;2023-12-28T03:54:05;100722.16;;;8.24;59.19
81352;BME280;70809;52.184;13.422;2023-12-28T03:55:07;100724.91;;;8.30;58.85
81352;BME280;70809;52.184;13.422;2023-12-28T03:56:18;100725.88;;;8.34;59.22
81352;BME280;70809;52.184;13.422;2023-12-28T03:57:20;100725.00;;;8.33;59.01
81352;BME280;70809;52.184;13.422;2023-12-28T03:58:23;100738.81;;;8.24;60.16
81352;BME280;70809;52.184;13.422;2023-12-28T03:59:25;100744.84;;;8.19;60.21
81352;BME280;70809;52.184;13.422;2023-12-28T04:00:27;100729.16;;;8.23;59.64
81352;BME280;70809;52.184;13.422;2023-12-28T04:01:29;100742.16;;;8.16;59.70
81352;BME280;70809;52.184;13.422;2023-12-28T04:02:31;100759.00;;;8.24;59.60
81352;BME280;70809;52.184;13.422;2023-12-28T04:03:33;100758.13;;;8.25;59.80
81352;BME280;70809;52.184;13.422;2023-12-28T04:04:35;100750.25;;;8.25;58.77
81352;BME280;70809;52.184;13.422;2023-12-28T04:05:37;100760.00;;;8.31;59.14
81352;BME280;70809;52.184;13.422;2023-12-28T04:06:38;100761.88;;;8.35;58.85
81352;BME280;70809;52.184;13.422;2023-12-28T04:07:40;100745.25;;;8.36;58.81
81352;BME280;70809;52.184;13.422;2023-12-28T04:08:43;100745.31;;;8.37;59.58
81352;BME280;70809;52.184;13.422;2023-12-28T04:09:44;100738.06;;;8.30;59.35
81352;BME280;70809;52.184;13.422;2023-12-28T04:10:46;100739.13;;;8.37;58.32
81352;BME280;70809;52.184;13.422;2023-12-28T04:11:48;100726.81;;;8.36;58.46
81352;BME280;70809;52.184;13.422;2023-12-28T04:12:49;100726.81;;;8.36;59.09
81352;BME280;70809;52.184;13.422;2023-12-28T04:13:53;100718.06;;;8.37;58.57
81352;BME280;70809;52.184;13.422;2023-12-28T04:14:54;100703.22;;;8.39;58.71
81352;BME280;70809;52.184;13.422;2023-12-28T04:15:57;100711.75;;;8.30;59.34
81352;BME280;70809;52.184;13.422;2023-12-28T04:16:59;100709.19;;;8.32;58.13
81352;BME280;70809;52.184;13.422;2023-12-28T04:18:00;100720.78;;;8.40;58.45
81352;BME280;70809;52.184;13.422;2023-12-28T04:19:03;100738.59;;;8.51;57.90
81352;BME280;70809;52.184;13.422;2023-12-28T04:20:07;100738.69;;;8.55;58.17
81352;BME280;70809;52.184;13.422;2023-12-28T04:21:09;100750.63;;;8.40;59.01
81352;BME280;70809;52.184;13.422;2023-12-28T04:22:11;100746.22;;;8.39;58.40
81352;BME280;70809;52.184;13.422;2023-12-28T04:23:13;100746.25;;;8.41;58.81
81352;BME280;70809;52.184;13.422;2023-12-28T04:24:15;100746.38;;;8.47;58.20
81352;BME280;70809;52.184;13.422;2023-12-28T04:25:17;100736.81;;;8.49;58.13
81352;BME280;70809;52.184;13.422;2023-12-28T04:26:19;100726.28;;;8.49;57.77
81352;BME280;70809;52.184;13.422;2023-12-28T04:27:20;100711.44;;;8.54;58.53
81352;BME280;70809;52.184;13.422;2023-12-28T04:28:22;100722.66;;;8.45;58.89
81352;BME280;70809;52.184;13.422;2023-12-28T04:29:28;100730.72;;;8.53;57.60
81352;BME280;70809;52.184;13.422;2023-12-28T04:30:30;100719.34;;;8.54;57.61
81352;BME280;70809;52.184;13.422;2023-12-28T04:31:32;100715.91;;;8.58;57.88
81352;BME280;70809;52.184;13.422;2023-12-28T04:32:33;100715.16;;;8.64;57.42
81352;BME280;70809;52.184;13.422;2023-12-28T04:33:36;100713.31;;;8.60;57.59
81352;BME280;70809;52.184;13.422;2023-12-28T04:34:38;100722.16;;;8.63;57.87
81352;BME280;70809;52.184;13.422;2023-12-28T04:35:40;100731.94;;;8.69;57.41
81352;BME280;70809;52.184;13.422;2023-12-28T04:36:42;100730.97;;;8.65;57.50
81352;BME280;70809;52.184;13.422;2023-12-28T04:37:44;100748.50;;;8.63;58.20
81352;BME280;70809;52.184;13.422;2023-12-28T04:38:46;100739.75;;;8.64;58.12
81352;BME280;70809;52.184;13.422;2023-12-28T04:39:48;100732.56;;;8.57;57.80
81352;BME280;70809;52.184;13.422;2023-12-28T04:40:49;100730.94;;;8.62;58.50
81352;BME280;70809;52.184;13.422;2023-12-28T04:41:51;100741.22;;;8.50;58.85
81352;BME280;70809;52.184;13.422;2023-12-28T04:42:53;100730.69;;;8.50;58.50
81352;BME280;70809;52.184;13.422;2023-12-28T04:43:55;100738.44;;;8.44;58.91
81352;BME280;70809;52.184;13.422;2023-12-28T04:44:58;100730.84;;;8.59;58.39
81352;BME280;70809;52.184;13.422;2023-12-28T04:46:02;100741.22;;;8.51;58.79
81352;BME280;70809;52.184;13.422;2023-12-28T04:47:04;100745.59;;;8.51;58.74
81352;BME280;70809;52.184;13.422;2023-12-28T04:48:06;100748.16;;;8.48;59.04
81352;BME280;70809;52.184;13.422;2023-12-28T04:49:10;100749.97;;;8.49;59.39
81352;BME280;70809;52.184;13.422;2023-12-28T04:50:12;100754.28;;;8.47;59.41
81352;BME280;70809;52.184;13.422;2023-12-28T04:51:14;100751.66;;;8.47;59.35
81352;BME280;70809;52.184;13.422;2023-12-28T04:52:15;100755.16;;;8.47;59.23
81352;BME280;70809;52.184;13.422;2023-12-28T04:53:20;100756.28;;;8.57;58.59
81352;BME280;70809;52.184;13.422;2023-12-28T04:54:22;100754.53;;;8.58;58.77
81352;BME280;70809;52.184;13.422;2023-12-28T04:55:24;100765.13;;;8.61;59.01
81352;BME280;70809;52.184;13.422;2023-12-28T04:56:26;100764.28;;;8.62;58.79
81352;BME280;70809;52.184;13.422;2023-12-28T04:57:28;100769.53;;;8.60;58.71
81352;BME280;70809;52.184;13.422;2023-12-28T04:58:30;100750.28;;;8.64;59.11
81352;BME280;70809;52.184;13.422;2023-12-28T04:59:31;100757.19;;;8.59;59.26
81352;BME280;70809;52.184;13.422;2023-12-28T05:00:34;100748.47;;;8.60;58.89
81352;BME280;70809;52.184;13.422;2023-12-28T05:01:40;100754.59;;;8.61;59.22
81352;BME280;70809;52.184;13.422;2023-12-28T05:02:42;100757.13;;;8.56;59.77
81352;BME280;70809;52.184;13.422;2023-12-28T05:03:44;100759.56;;;8.48;59.64
81352;BME280;70809;52.184;13.422;2023-12-28T05:04:45;100747.63;;;8.63;59.06
81352;BME280;70809;52.184;13.422;2023-12-28T05:05:47;100756.63;;;8.72;59.35
81352;BME280;70809;52.184;13.422;2023-12-28T05:06:50;100752.00;;;8.62;59.46
81352;BME280;70809;52.184;13.422;2023-12-28T05:07:52;100755.66;;;8.69;59.65
81352;BME280;70809;52.184;13.422;2023-12-28T05:08:53;100746.72;;;8.62;59.73
81352;BME280;70809;52.184;13.422;2023-12-28T05:09:58;100746.72;;;8.62;59.88
81352;BME280;70809;52.184;13.422;2023-12-28T05:11:00;100758.94;;;8.59;60.20
81352;BME280;70809;52.184;13.422;2023-12-28T05:12:02;100765.13;;;8.61;59.78
81352;BME280;70809;52.184;13.422;2023-12-28T05:13:04;100759.03;;;8.63;59.96
81352;BME280;70809;52.184;13.422;2023-12-28T05:14:06;100756.50;;;8.68;59.72
81352;BME280;70809;52.184;13.422;2023-12-28T05:15:11;100766.91;;;8.62;60.48
81352;BME280;70809;52.184;13.422;2023-12-28T05:16:15;100764.25;;;8.60;60.10
81352;BME280;70809;52.184;13.422;2023-12-28T05:17:16;100770.41;;;8.61;60.10
81352;BME280;70809;52.184;13.422;2023-12-28T05:18:18;100767.03;;;8.68;60.52
81352;BME280;70809;52.184;13.422;2023-12-28T05:19:20;100777.63;;;8.71;59.95
81352;BME280;70809;52.184;13.422;2023-12-28T05:20:22;100773.53;;;8.84;60.14
81352;BME280;70809;52.184;13.422;2023-12-28T05:21:23;100778.63;;;8.76;60.03
81352;BME280;70809;52.184;13.422;2023-12-28T05:22:25;100784.53;;;8.66;60.57
81352;BME280;70809;52.184;13.422;2023-12-28T05:23:27;100785.31;;;8.60;60.98
81352;BME280;70809;52.184;13.422;2023-12-28T05:24:28;100790.78;;;8.69;60.70
81352;BME280;70809;52.184;13.422;2023-12-28T05:25:30;100776.00;;;8.76;60.59
81352;BME280;70809;52.184;13.422;2023-12-28T05:26:32;100790.72;;;8.66;60.67